sensor_id;sensor_type;location;lat;lon;timestamp;temperature;humidity
17381;DHT22;8808;52.478;13.378;2022-09-09T00:01:13;15.60;99.90
17381;DHT22;8808;52.478;13.378;2022-09-09T00:03:48;15.70;99.90
17381;DHT22;8808;52.478;13.378;2022-09-09T00:06:23;15.70;99.90
17381;DHT22;8808;52.478;13.378;2022-09-09T00:08:58;15.70;99.90
17381;DHT22;8808;52.478;13.378;2022-09-09T00:11:29;15.70;99.90
17381;DHT22;8808;52.478;13.378;2022-09-09T00:14:05;15.70;99.90
17381;DHT22;8808;52.478;13.378;2022-09-09T00:16:39;15.80;99.90
17381;DHT22;8808;52.478;13.378;2022-09-09T00:19:17;15.70;99.90
17381;DHT22;8808;52.478;13.378;2022-09-09T00:21:51;15.70;99.90
17381;DHT22;8808;52.478;13.378;2022-09-09T00:24:24;15.70;99.90
17381;DHT22;8808;52.478;13.378;2022-09-09T00:26:56;15.70;99.90
17381;DHT22;8808;52.478;13.378;2022-09-09T00:29:28;15.70;99.90
17381;DHT22;8808;52.478;13.378;2022-09-09T00:32:09;15.70;99.90
17381;DHT22;8808;52.478;13.378;2022-09-09T00:34:44;15.70;99.90
17381;DHT22;8808;52.478;13.378;2022-09-09T00:37:11;15.70;99.90
17381;DHT22;8808;52.478;13.378;2022-09-09T00:39:40;15.70;99.90
17381;DHT22;8808;52.478;13.378;2022-09-09T00:42:14;15.70;99.90
17381;DHT22;8808;52.478;13.378;2022-09-09T00:44:51;15.60;99.90
17381;DHT22;8808;52.478;13.378;2022-09-09T00:47:36;15.60;99.90
17381;DHT22;8808;52.478;13.378;2022-09-09T00:50:15;15.60;99.90
17381;DHT22;8808;52.478;13.378;2022-09-09T00:52:47;15.60;99.90
17381;DHT22;8808;52.478;13.378;2022-09-09T00:55:20;15.50;99.90
17381;DHT22;8808;52.478;13.378;2022-09-09T00:57:52;15.50;99.90
17381;DHT22;8808;52.478;13.378;2022-09-09T01:00:24;15.50;99.90
17381;DHT22;8808;52.478;13.378;2022-09-09T01:03:01;15.50;99.90
17381;DHT22;8808;52.478;13.378;2022-09-09T01:05:35;15.40;99.90
17381;DHT22;8808;52.478;13.378;2022-09-09T01:08:11;15.40;99.90
17381;DHT22;8808;52.478;13.378;2022-09-09T01:10:47;15.40;99.90
17381;DHT22;8808;52.478;13.378;2022-09-09T01:13:22;15.40;99.90
17381;DHT22;8808;52.478;13.378;2022-09-09T01:15:50;15.30;99.90
17381;DHT22;8808;52.478;13.378;2022-09-09T01:18:21;15.20;99.90
17381;DHT22;8808;52.478;13.378;2022-09-09T01:20:57;15.10;99.90
17381;DHT22;8808;52.478;13.378;2022-09-09T01:26:30;15.00;99.90
17381;DHT22;8808;52.478;13.378;2022-09-09T01:29:00;15.00;99.90
17381;DHT22;8808;52.478;13.378;2022-09-09T01:31:29;14.90;99.90
17381;DHT22;8808;52.478;13.378;2022-09-09T01:33:56;14.80;99.90
17381;DHT22;8808;52.478;13.378;2022-09-09T01:36:29;14.80;99.90
17381;DHT22;8808;52.478;13.378;2022-09-09T01:38:59;14.80;99.90
17381;DHT22;8808;52.478;13.378;2022-09-09T01:41:26;14.90;99.90
17381;DHT22;8808;52.478;13.378;2022-09-09T01:43:54;14.70;99.90
17381;DHT22;8808;52.478;13.378;2022-09-09T01:46:22;14.80;99.90
17381;DHT22;8808;52.478;13.378;2022-09-09T01:48:50;14.80;99.90
17381;DHT22;8808;52.478;13.378;2022-09-09T01:51:17;14.70;99.90
17381;DHT22;8808;52.478;13.378;2022-09-09T01:53:45;14.80;99.90
17381;DHT22;8808;52.478;13.378;2022-09-09T01:56:21;14.80;99.90
17381;DHT22;8808;52.478;13.378;2022-09-09T01:59:01;14.70;99.90
17381;DHT22;8808;52.478;13.378;2022-09-09T02:01:38;14.70;99.90
17381;DHT22;8808;52.478;13.378;2022-09-09T02:04:18;14.70;99.90
17381;DHT22;8808;52.478;13.378;2022-09-09T02:06:53;15.00;99.90
17381;DHT22;8808;52.478;13.378;2022-09-09T02:09:24;15.00;99.90
17381;DHT22;8808;52.478;13.378;2022-09-09T02:11:57;15.10;99.90
17381;DHT22;8808;52.478;13.378;2022-09-09T02:14:30;15.10;99.90
17381;DHT22;8808;52.478;13.378;2022-09-09T02:17:03;15.00;99.90
17381;DHT22;8808;52.478;13.378;2022-09-09T02:19:32;15.00;99.90
17381;DHT22;8808;52.478;13.378;2022-09-09T02:22:01;15.00;99.90
17381;DHT22;8808;52.478;13.378;2022-09-09T02:24:30;15.00;99.90
17381;DHT22;8808;52.478;13.378;2022-09-09T02:26:59;15.00;99.90
17381;DHT22;8808;52.478;13.378;2022-09-09T02:29:31;15.00;99.90
17381;DHT22;8808;52.478;13.378;2022-09-09T02:32:03;15.00;99.90
17381;DHT22;8808;52.478;13.378;2022-09-09T02:34:32;15.00;99.90
17381;DHT22;8808;52.478;13.378;2022-09-09T02:37:00;15.00;99.90
17381;DHT22;8808;52.478;13.378;2022-09-09T02:39:28;15.00;99.90
17381;DHT22;8808;52.478;13.378;2022-09-09T02:41:55;15.00;99.90
17381;DHT22;8808;52.478;13.378;2022-09-09T02:44:22;15.00;99.90
17381;DHT22;8808;52.478;13.378;2022-09-09T02:47:08;14.90;99.90
17381;DHT22;8808;52.478;13.378;2022-09-09T02:49:45;14.90;99.90
17381;DHT22;8808;52.478;13.378;2022-09-09T02:52:17;14.90;99.90
17381;DHT22;8808;52.478;13.378;2022-09-09T02:54:45;14.90;99.90
17381;DHT22;8808;52.478;13.378;2022-09-09T02:57:17;14.90;99.90
17381;DHT22;8808;52.478;13.378;2022-09-09T02:59:47;14.90;99.90
17381;DHT22;8808;52.478;13.378;2022-09-09T03:02:15;14.80;99.90
17381;DHT22;8808;52.478;13.378;2022-09-09T03:04:44;14.70;99.90
17381;DHT22;8808;52.478;13.378;2022-09-09T03:07:16;14.60;99.90
17381;DHT22;8808;52.478;13.378;2022-09-09T03:09:43;14.80;99.90
17381;DHT22;8808;52.478;13.378;2022-09-09T03:12:10;14.80;99.90
17381;DHT22;8808;52.478;13.378;2022-09-09T03:14:37;14.90;99.90
17381;DHT22;8808;52.478;13.378;2022-09-09T03:17:04;14.80;99.90
17381;DHT22;8808;52.478;13.378;2022-09-09T03:19:32;14.80;99.90
17381;DHT22;8808;52.478;13.378;2022-09-09T03:22:00;14.60;99.90
17381;DHT22;8808;52.478;13.378;2022-09-09T03:24:27;14.50;99.90
17381;DHT22;8808;52.478;13.378;2022-09-09T03:26:54;14.60;99.90
17381;DHT22;8808;52.478;13.378;2022-09-09T03:29:21;14.50;99.90
17381;DHT22;8808;52.478;13.378;2022-09-09T03:31:47;14.70;99.90
17381;DHT22;8808;52.478;13.378;2022-09-09T03:34:16;14.60;99.90
17381;DHT22;8808;52.478;13.378;2022-09-09T03:36:44;14.60;99.90
17381;DHT22;8808;52.478;13.378;2022-09-09T03:39:11;14.70;99.90
17381;DHT22;8808;52.478;13.378;2022-09-09T03:41:39;14.60;99.90
17381;DHT22;8808;52.478;13.378;2022-09-09T03:44:06;14.60;99.90
17381;DHT22;8808;52.478;13.378;2022-09-09T03:46:33;14.60;99.90
17381;DHT22;8808;52.478;13.378;2022-09-09T03:49:00;14.60;99.90
17381;DHT22;8808;52.478;13.378;2022-09-09T03:51:27;14.70;99.90
17381;DHT22;8808;52.478;13.378;2022-09-09T03:53:55;14.70;99.90
17381;DHT22;8808;52.478;13.378;2022-09-09T03:56:23;14.70;99.90
17381;DHT22;8808;52.478;13.378;2022-09-09T03:58:50;14.70;99.90
17381;DHT22;8808;52.478;13.378;2022-09-09T04:01:17;14.70;99.90
17381;DHT22;8808;52.478;13.378;2022-09-09T04:03:44;14.60;99.90
17381;DHT22;8808;52.478;13.378;2022-09-09T04:06:12;14.40;99.90
17381;DHT22;8808;52.478;13.378;2022-09-09T04:08:40;14.50;99.90
17381;DHT22;8808;52.478;13.378;2022-09-09T04:11:09;14.50;99.90
17381;DHT22;8808;52.478;13.378;2022-09-09T04:13:37;14.50;99.90
17381;DHT22;8808;52.478;13.378;2022-09-09T04:16:04;14.50;99.90
17381;DHT22;8808;52.478;13.378;2022-09-09T04:18:32;14.50;99.90
17381;DHT22;8808;52.478;13.378;2022-09-09T04:20:59;14.40;99.90
17381;DHT22;8808;52.478;13.378;2022-09-09T04:23:27;14.30;99.90
17381;DHT22;8808;52.478;13.378;2022-09-09T04:25:56;14.40;99.90
17381;DHT22;8808;52.478;13.378;2022-09-09T04:28:27;14.40;99.90
17381;DHT22;8808;52.478;13.378;2022-09-09T04:30:54;14.50;99.90
17381;DHT22;8808;52.478;13.378;2022-09-09T04:33:23;14.50;99.90
17381;DHT22;8808;52.478;13.378;2022-09-09T04:35:52;14.50;99.90
17381;DHT22;8808;52.478;13.378;2022-09-09T04:38:19;14.50;99.90
17381;DHT22;8808;52.478;13.378;2022-09-09T04:40:49;14.40;99.90
17381;DHT22;8808;52.478;13.378;2022-09-09T04:43:17;14.50;99.90
17381;DHT22;8808;52.478;13.378;2022-09-09T04:45:47;14.50;99.90
17381;DHT22;8808;52.478;13.378;2022-09-09T04:48:14;14.40;99.90
17381;DHT22;8808;52.478;13.378;2022-09-09T04:50:41;14.50;99.90
17381;DHT22;8808;52.478;13.378;2022-09-09T04:53:09;14.40;99.90
17381;DHT22;8808;52.478;13.378;2022-09-09T04:55:36;14.50;99.90
17381;DHT22;8808;52.478;13.378;2022-09-09T04:58:03;14.50;99.90
17381;DHT22;8808;52.478;13.378;2022-09-09T05:00:31;14.50;99.90
17381;DHT22;8808;52.478;13.378;2022-09-09T05:03:02;14.60;99.90
17381;DHT22;8808;52.478;13.378;2022-09-09T05:05:29;14.50;99.90
17381;DHT22;8808;52.478;13.378;2022-09-09T05:08:04;14.50;99.90
17381;DHT22;8808;52.478;13.378;2022-09-09T05:10:31;14.60;99.90
17381;DHT22;8808;52.478;13.378;2022-09-09T05:12:58;14.70;99.90
17381;DHT22;8808;52.478;13.378;2022-09-09T05:15:25;14.70;99.90
17381;DHT22;8808;52.478;13.378;2022-09-09T05:17:51;14.60;99.90
17381;DHT22;8808;52.478;13.378;2022-09-09T05:20:20;14.70;99.90
17381;DHT22;8808;52.478;13.378;2022-09-09T05:22:47;14.70;99.90
17381;DHT22;8808;52.478;13.378;2022-09-09T05:25:14;14.70;99.90
17381;DHT22;8808;52.478;13.378;2022-09-09T05:27:41;14.70;99.90
17381;DHT22;8808;52.478;13.378;2022-09-09T05:30:09;14.70;99.90
17381;DHT22;8808;52.478;13.378;2022-09-09T05:32:36;14.90;99.90
17381;DHT22;8808;52.478;13.378;2022-09-09T05:35:03;15.00;99.90
17381;DHT22;8808;52.478;13.378;2022-09-09T05:37:32;14.90;99.90
17381;DHT22;8808;52.478;13.378;2022-09-09T05:39:58;15.10;99.90
17381;DHT22;8808;52.478;13.378;2022-09-09T05:42:32;15.00;99.90
17381;DHT22;8808;52.478;13.378;2022-09-09T05:44:59;15.20;99.90
17381;DHT22;8808;52.478;13.378;2022-09-09T05:47:25;15.30;99.90
17381;DHT22;8808;52.478;13.378;2022-09-09T05:49:53;15.30;99.90
17381;DHT22;8808;52.478;13.378;2022-09-09T05:52:20;15.30;99.90
17381;DHT22;8808;52.478;13.378;2022-09-09T05:54:49;15.30;99.90
17381;DHT22;8808;52.478;13.378;2022-09-09T05:57:16;15.40;99.90
17381;DHT22;8808;52.478;13.378;2022-09-09T05:59:44;15.50;99.90
17381;DHT22;8808;52.478;13.378;2022-09-09T06:02:11;15.60;99.90
17381;DHT22;8808;52.478;13.378;2022-09-09T06:04:39;15.70;99.90
17381;DHT22;8808;52.478;13.378;2022-09-09T06:07:05;15.80;99.90
17381;DHT22;8808;52.478;13.378;2022-09-09T06:09:32;15.80;99.90
17381;DHT22;8808;52.478;13.378;2022-09-09T06:12:01;16.00;99.90
17381;DHT22;8808;52.478;13.378;2022-09-09T06:14:27;16.00;99.90
17381;DHT22;8808;52.478;13.378;2022-09-09T06:16:54;16.00;99.90
17381;DHT22;8808;52.478;13.378;2022-09-09T06:19:22;16.00;99.90
17381;DHT22;8808;52.478;13.378;2022-09-09T06:21:49;16.00;99.90
17381;DHT22;8808;52.478;13.378;2022-09-09T06:24:16;16.00;99.90
17381;DHT22;8808;52.478;13.378;2022-09-09T06:26:45;16.10;99.90
17381;DHT22;8808;52.478;13.378;2022-09-09T06:29:13;16.10;99.90
17381;DHT22;8808;52.478;13.378;2022-09-09T06:31:39;16.00;99.90
17381;DHT22;8808;52.478;13.378;2022-09-09T06:34:07;16.20;99.90
17381;DHT22;8808;52.478;13.378;2022-09-09T06:36:36;16.10;99.90
17381;DHT22;8808;52.478;13.378;2022-09-09T06:39:03;16.00;99.90
17381;DHT22;8808;52.478;13.378;2022-09-09T06:41:31;16.10;99.90
17381;DHT22;8808;52.478;13.378;2022-09-09T06:43:59;16.00;99.90
17381;DHT22;8808;52.478;13.378;2022-09-09T06:46:28;16.10;99.90
17381;DHT22;8808;52.478;13.378;2022-09-09T06:48:57;16.10;99.90
17381;DHT22;8808;52.478;13.378;2022-09-09T06:51:26;16.10;99.90
17381;DHT22;8808;52.478;13.378;2022-09-09T06:53:55;16.00;99.90
17381;DHT22;8808;52.478;13.378;2022-09-09T06:56:24;16.10;99.90
17381;DHT22;8808;52.478;13.378;2022-09-09T06:58:52;16.10;99.90
17381;DHT22;8808;52.478;13.378;2022-09-09T07:01:21;16.50;99.90
17381;DHT22;8808;52.478;13.378;2022-09-09T07:03:52;16.60;99.90
17381;DHT22;8808;52.478;13.378;2022-09-09T07:06:21;16.60;99.90
17381;DHT22;8808;52.478;13.378;2022-09-09T07:08:49;16.70;99.90
17381;DHT22;8808;52.478;13.378;2022-09-09T07:11:17;17.00;99.90
17381;DHT22;8808;52.478;13.378;2022-09-09T07:13:44;17.00;99.90
17381;DHT22;8808;52.478;13.378;2022-09-09T07:16:12;17.30;99.90
17381;DHT22;8808;52.478;13.378;2022-09-09T07:18:40;17.30;99.90
17381;DHT22;8808;52.478;13.378;2022-09-09T07:21:10;17.40;99.90
17381;DHT22;8808;52.478;13.378;2022-09-09T07:23:40;17.30;99.90
17381;DHT22;8808;52.478;13.378;2022-09-09T07:26:11;17.30;99.90
17381;DHT22;8808;52.478;13.378;2022-09-09T07:28:39;17.40;99.90
17381;DHT22;8808;52.478;13.378;2022-09-09T07:31:12;17.50;99.90
17381;DHT22;8808;52.478;13.378;2022-09-09T07:33:41;17.70;99.90
17381;DHT22;8808;52.478;13.378;2022-09-09T07:36:12;17.60;99.90
17381;DHT22;8808;52.478;13.378;2022-09-09T07:38:39;17.70;99.90
17381;DHT22;8808;52.478;13.378;2022-09-09T07:41:08;17.90;99.90
17381;DHT22;8808;52.478;13.378;2022-09-09T07:43:37;17.90;99.90
17381;DHT22;8808;52.478;13.378;2022-09-09T07:46:05;18.00;99.90
17381;DHT22;8808;52.478;13.378;2022-09-09T07:48:32;18.10;99.90
17381;DHT22;8808;52.478;13.378;2022-09-09T07:51:07;18.20;99.90
17381;DHT22;8808;52.478;13.378;2022-09-09T07:53:38;18.20;99.90
17381;DHT22;8808;52.478;13.378;2022-09-09T07:56:06;18.30;99.90
17381;DHT22;8808;52.478;13.378;2022-09-09T07:58:35;18.40;99.90
17381;DHT22;8808;52.478;13.378;2022-09-09T08:01:06;18.40;99.90
17381;DHT22;8808;52.478;13.378;2022-09-09T08:03:34;18.30;99.90
17381;DHT22;8808;52.478;13.378;2022-09-09T08:06:02;18.50;99.90
17381;DHT22;8808;52.478;13.378;2022-09-09T08:08:29;18.50;99.90
17381;DHT22;8808;52.478;13.378;2022-09-09T08:11:06;18.60;99.90
17381;DHT22;8808;52.478;13.378;2022-09-09T08:13:34;18.70;99.90
17381;DHT22;8808;52.478;13.378;2022-09-09T08:16:06;18.60;99.90
17381;DHT22;8808;52.478;13.378;2022-09-09T08:18:33;18.60;99.90
17381;DHT22;8808;52.478;13.378;2022-09-09T08:21:11;18.60;99.90
17381;DHT22;8808;52.478;13.378;2022-09-09T08:23:39;18.60;99.90
17381;DHT22;8808;52.478;13.378;2022-09-09T08:26:11;18.50;99.90
17381;DHT22;8808;52.478;13.378;2022-09-09T08:28:39;18.50;99.90
17381;DHT22;8808;52.478;13.378;2022-09-09T08:31:08;18.60;99.90
17381;DHT22;8808;52.478;13.378;2022-09-09T08:33:35;18.50;99.90
17381;DHT22;8808;52.478;13.378;2022-09-09T08:36:04;18.40;99.90
17381;DHT22;8808;52.478;13.378;2022-09-09T08:38:31;18.50;99.90
17381;DHT22;8808;52.478;13.378;2022-09-09T08:41:12;18.50;99.90
17381;DHT22;8808;52.478;13.378;2022-09-09T08:43:46;18.40;99.90
17381;DHT22;8808;52.478;13.378;2022-09-09T08:46:17;18.40;99.90
17381;DHT22;8808;52.478;13.378;2022-09-09T08:48:54;18.40;99.90
17381;DHT22;8808;52.478;13.378;2022-09-09T08:51:26;18.40;99.90
17381;DHT22;8808;52.478;13.378;2022-09-09T08:53:55;18.40;99.90
17381;DHT22;8808;52.478;13.378;2022-09-09T08:56:25;18.40;99.90
17381;DHT22;8808;52.478;13.378;2022-09-09T08:58:55;18.40;99.90
17381;DHT22;8808;52.478;13.378;2022-09-09T09:01:38;18.40;99.90
17381;DHT22;8808;52.478;13.378;2022-09-09T09:04:15;18.50;99.90
17381;DHT22;8808;52.478;13.378;2022-09-09T09:06:50;18.60;99.90
17381;DHT22;8808;52.478;13.378;2022-09-09T09:09:26;18.60;99.90
17381;DHT22;8808;52.478;13.378;2022-09-09T09:11:59;18.90;99.90
17381;DHT22;8808;52.478;13.378;2022-09-09T09:14:29;19.00;99.90
17381;DHT22;8808;52.478;13.378;2022-09-09T09:17:01;19.00;99.90
17381;DHT22;8808;52.478;13.378;2022-09-09T09:19:29;19.10;99.90
17381;DHT22;8808;52.478;13.378;2022-09-09T09:22:02;19.20;99.90
17381;DHT22;8808;52.478;13.378;2022-09-09T09:24:40;19.20;99.90
17381;DHT22;8808;52.478;13.378;2022-09-09T09:27:12;19.50;99.90
17381;DHT22;8808;52.478;13.378;2022-09-09T09:29:40;19.60;99.90
17381;DHT22;8808;52.478;13.378;2022-09-09T09:32:11;19.80;99.90
17381;DHT22;8808;52.478;13.378;2022-09-09T09:34:40;19.80;99.90
17381;DHT22;8808;52.478;13.378;2022-09-09T09:37:15;19.80;99.90
17381;DHT22;8808;52.478;13.378;2022-09-09T09:39:45;20.00;99.90
17381;DHT22;8808;52.478;13.378;2022-09-09T09:42:16;20.00;99.90
17381;DHT22;8808;52.478;13.378;2022-09-09T09:44:44;20.10;99.90
17381;DHT22;8808;52.478;13.378;2022-09-09T09:47:12;20.10;99.90
17381;DHT22;8808;52.478;13.378;2022-09-09T09:49:39;20.30;99.90
17381;DHT22;8808;52.478;13.378;2022-09-09T09:52:21;20.40;99.90
17381;DHT22;8808;52.478;13.378;2022-09-09T09:54:50;20.40;99.90
17381;DHT22;8808;52.478;13.378;2022-09-09T09:57:24;20.40;99.90
17381;DHT22;8808;52.478;13.378;2022-09-09T10:00:02;20.60;99.90
17381;DHT22;8808;52.478;13.378;2022-09-09T10:02:38;20.70;99.90
17381;DHT22;8808;52.478;13.378;2022-09-09T10:05:13;20.90;99.90
17381;DHT22;8808;52.478;13.378;2022-09-09T10:07:40;20.90;99.90
17381;DHT22;8808;52.478;13.378;2022-09-09T10:10:13;21.00;99.90
17381;DHT22;8808;52.478;13.378;2022-09-09T10:12:52;21.00;99.90
17381;DHT22;8808;52.478;13.378;2022-09-09T10:15:31;20.80;99.90
17381;DHT22;8808;52.478;13.378;2022-09-09T10:18:06;20.80;99.90
17381;DHT22;8808;52.478;13.378;2022-09-09T10:20:45;21.00;99.90
17381;DHT22;8808;52.478;13.378;2022-09-09T10:23:23;21.00;99.90
17381;DHT22;8808;52.478;13.378;2022-09-09T10:26:08;21.00;99.90
17381;DHT22;8808;52.478;13.378;2022-09-09T10:28:57;21.20;99.90
17381;DHT22;8808;52.478;13.378;2022-09-09T10:31:35;21.20;99.90
17381;DHT22;8808;52.478;13.378;2022-09-09T10:34:13;21.10;99.90
17381;DHT22;8808;52.478;13.378;2022-09-09T10:36:47;21.00;99.90
17381;DHT22;8808;52.478;13.378;2022-09-09T10:39:22;21.00;99.90
17381;DHT22;8808;52.478;13.378;2022-09-09T10:41:56;21.20;99.90
17381;DHT22;8808;52.478;13.378;2022-09-09T10:44:55;21.60;99.90
17381;DHT22;8808;52.478;13.378;2022-09-09T10:47:42;21.50;99.90
17381;DHT22;8808;52.478;13.378;2022-09-09T10:50:36;21.60;99.90
17381;DHT22;8808;52.478;13.378;2022-09-09T10:53:13;21.60;99.90
17381;DHT22;8808;52.478;13.378;2022-09-09T10:55:44;22.10;99.90
17381;DHT22;8808;52.478;13.378;2022-09-09T10:58:15;22.30;99.90
17381;DHT22;8808;52.478;13.378;2022-09-09T11:00:45;22.30;99.90
17381;DHT22;8808;52.478;13.378;2022-09-09T11:03:18;22.40;99.90
17381;DHT22;8808;52.478;13.378;2022-09-09T11:05:49;22.40;99.90
17381;DHT22;8808;52.478;13.378;2022-09-09T11:08:19;22.40;99.90
17381;DHT22;8808;52.478;13.378;2022-09-09T11:10:51;22.70;99.90
17381;DHT22;8808;52.478;13.378;2022-09-09T11:13:24;22.80;99.90
17381;DHT22;8808;52.478;13.378;2022-09-09T11:15:59;23.10;99.90
17381;DHT22;8808;52.478;13.378;2022-09-09T11:18:29;23.00;99.90
17381;DHT22;8808;52.478;13.378;2022-09-09T11:21:00;23.10;99.90
17381;DHT22;8808;52.478;13.378;2022-09-09T11:23:36;23.20;99.90
17381;DHT22;8808;52.478;13.378;2022-09-09T11:26:07;23.00;99.90
17381;DHT22;8808;52.478;13.378;2022-09-09T11:28:52;22.40;99.90
17381;DHT22;8808;52.478;13.378;2022-09-09T11:31:42;22.20;99.90
17381;DHT22;8808;52.478;13.378;2022-09-09T11:34:32;22.20;99.90
17381;DHT22;8808;52.478;13.378;2022-09-09T11:37:17;22.60;99.90
17381;DHT22;8808;52.478;13.378;2022-09-09T11:45:15;23.20;99.90
17381;DHT22;8808;52.478;13.378;2022-09-09T11:47:53;23.30;99.90
17381;DHT22;8808;52.478;13.378;2022-09-09T11:50:35;23.30;99.90
17381;DHT22;8808;52.478;13.378;2022-09-09T11:53:21;23.50;99.90
17381;DHT22;8808;52.478;13.378;2022-09-09T11:56:04;23.20;99.90
17381;DHT22;8808;52.478;13.378;2022-09-09T11:58:37;23.20;99.90
17381;DHT22;8808;52.478;13.378;2022-09-09T12:01:27;23.10;99.90
17381;DHT22;8808;52.478;13.378;2022-09-09T12:06:44;23.40;99.90
17381;DHT22;8808;52.478;13.378;2022-09-09T12:09:27;23.50;99.90
17381;DHT22;8808;52.478;13.378;2022-09-09T12:12:05;23.50;99.90
17381;DHT22;8808;52.478;13.378;2022-09-09T12:14:43;23.50;99.90
17381;DHT22;8808;52.478;13.378;2022-09-09T12:17:19;23.60;99.90
17381;DHT22;8808;52.478;13.378;2022-09-09T12:19:48;23.80;99.90
17381;DHT22;8808;52.478;13.378;2022-09-09T12:22:22;23.70;99.90
17381;DHT22;8808;52.478;13.378;2022-09-09T12:24:58;23.70;99.90
17381;DHT22;8808;52.478;13.378;2022-09-09T17:49:51;20.40;99.90
17381;DHT22;8808;52.478;13.378;2022-09-09T17:52:18;20.40;99.90
17381;DHT22;8808;52.478;13.378;2022-09-09T17:54:44;20.10;99.90
17381;DHT22;8808;52.478;13.378;2022-09-09T17:57:13;20.30;99.90
17381;DHT22;8808;52.478;13.378;2022-09-09T17:59:42;20.20;99.90
17381;DHT22;8808;52.478;13.378;2022-09-09T18:02:10;20.10;99.90
17381;DHT22;8808;52.478;13.378;2022-09-09T18:04:37;20.10;99.90
17381;DHT22;8808;52.478;13.378;2022-09-09T18:07:04;19.90;99.90
17381;DHT22;8808;52.478;13.378;2022-09-09T18:09:31;19.90;99.90
17381;DHT22;8808;52.478;13.378;2022-09-09T18:11:59;19.80;99.90
17381;DHT22;8808;52.478;13.378;2022-09-09T18:14:29;19.80;99.90
17381;DHT22;8808;52.478;13.378;2022-09-09T18:16:57;19.70;99.90
17381;DHT22;8808;52.478;13.378;2022-09-09T18:19:27;19.60;99.90
17381;DHT22;8808;52.478;13.378;2022-09-09T18:21:55;19.50;99.90
17381;DHT22;8808;52.478;13.378;2022-09-09T18:24:23;19.50;99.90
17381;DHT22;8808;52.478;13.378;2022-09-09T18:26:51;19.50;99.90
17381;DHT22;8808;52.478;13.378;2022-09-09T18:29:20;19.50;99.90
17381;DHT22;8808;52.478;13.378;2022-09-09T18:31:51;19.40;99.90
17381;DHT22;8808;52.478;13.378;2022-09-09T18:34:20;19.30;99.90
17381;DHT22;8808;52.478;13.378;2022-09-09T18:36:48;19.20;99.90
17381;DHT22;8808;52.478;13.378;2022-09-09T18:39:19;19.10;99.90
17381;DHT22;8808;52.478;13.378;2022-09-09T18:41:48;19.00;99.90
17381;DHT22;8808;52.478;13.378;2022-09-09T18:44:19;18.90;99.90
17381;DHT22;8808;52.478;13.378;2022-09-09T18:46:46;18.80;99.90
17381;DHT22;8808;52.478;13.378;2022-09-09T18:49:15;18.80;99.90
17381;DHT22;8808;52.478;13.378;2022-09-09T18:51:43;18.80;99.90
17381;DHT22;8808;52.478;13.378;2022-09-09T18:54:12;18.70;99.90
17381;DHT22;8808;52.478;13.378;2022-09-09T18:56:41;18.70;99.90
17381;DHT22;8808;52.478;13.378;2022-09-09T18:59:10;18.70;99.90
17381;DHT22;8808;52.478;13.378;2022-09-09T19:01:37;18.70;99.90
17381;DHT22;8808;52.478;13.378;2022-09-09T19:04:05;18.60;99.90
17381;DHT22;8808;52.478;13.378;2022-09-09T19:06:37;18.50;99.90
17381;DHT22;8808;52.478;13.378;2022-09-09T19:09:04;18.50;99.90
17381;DHT22;8808;52.478;13.378;2022-09-09T19:11:32;18.50;99.90
17381;DHT22;8808;52.478;13.378;2022-09-09T19:14:00;18.40;99.90
17381;DHT22;8808;52.478;13.378;2022-09-09T19:16:29;18.40;99.90
17381;DHT22;8808;52.478;13.378;2022-09-09T19:18:57;18.40;99.90
17381;DHT22;8808;52.478;13.378;2022-09-09T19:21:27;18.40;99.90
17381;DHT22;8808;52.478;13.378;2022-09-09T19:23:57;18.30;99.90
17381;DHT22;8808;52.478;13.378;2022-09-09T19:26:26;18.30;99.90
17381;DHT22;8808;52.478;13.378;2022-09-09T19:28:56;18.30;99.90
17381;DHT22;8808;52.478;13.378;2022-09-09T19:31:22;18.30;99.90
17381;DHT22;8808;52.478;13.378;2022-09-09T19:33:53;18.20;99.90
17381;DHT22;8808;52.478;13.378;2022-09-09T19:36:22;18.20;99.90
17381;DHT22;8808;52.478;13.378;2022-09-09T19:38:51;18.20;99.90
17381;DHT22;8808;52.478;13.378;2022-09-09T19:41:21;18.10;99.90
17381;DHT22;8808;52.478;13.378;2022-09-09T19:43:49;18.10;99.90
17381;DHT22;8808;52.478;13.378;2022-09-09T19:46:17;18.00;99.90
17381;DHT22;8808;52.478;13.378;2022-09-09T19:48:45;18.00;99.90
17381;DHT22;8808;52.478;13.378;2022-09-09T19:51:14;18.00;99.90
17381;DHT22;8808;52.478;13.378;2022-09-09T19:53:42;17.90;99.90
17381;DHT22;8808;52.478;13.378;2022-09-09T19:56:10;17.80;99.90
17381;DHT22;8808;52.478;13.378;2022-09-09T19:58:39;17.80;99.90
17381;DHT22;8808;52.478;13.378;2022-09-09T20:01:08;17.90;99.90
17381;DHT22;8808;52.478;13.378;2022-09-09T20:03:36;17.80;99.90
17381;DHT22;8808;52.478;13.378;2022-09-09T20:06:06;17.80;99.90
17381;DHT22;8808;52.478;13.378;2022-09-09T20:08:33;17.80;99.90
17381;DHT22;8808;52.478;13.378;2022-09-09T20:11:00;17.80;99.90
17381;DHT22;8808;52.478;13.378;2022-09-09T20:13:28;17.70;99.90
17381;DHT22;8808;52.478;13.378;2022-09-09T20:15:57;17.70;99.90
17381;DHT22;8808;52.478;13.378;2022-09-09T20:18:27;17.60;99.90
17381;DHT22;8808;52.478;13.378;2022-09-09T20:20:56;17.60;99.90
17381;DHT22;8808;52.478;13.378;2022-09-09T20:23:24;17.60;99.90
17381;DHT22;8808;52.478;13.378;2022-09-09T20:25:51;17.60;99.90
17381;DHT22;8808;52.478;13.378;2022-09-09T20:28:18;17.50;99.90
17381;DHT22;8808;52.478;13.378;2022-09-09T20:30:45;17.50;99.90
17381;DHT22;8808;52.478;13.378;2022-09-09T20:33:14;17.40;99.90
17381;DHT22;8808;52.478;13.378;2022-09-09T20:35:41;17.40;99.90
17381;DHT22;8808;52.478;13.378;2022-09-09T20:38:07;17.50;99.90
17381;DHT22;8808;52.478;13.378;2022-09-09T20:40:35;17.40;99.90
17381;DHT22;8808;52.478;13.378;2022-09-09T20:43:02;17.30;99.90
17381;DHT22;8808;52.478;13.378;2022-09-09T20:45:29;17.30;99.90
17381;DHT22;8808;52.478;13.378;2022-09-09T20:47:56;17.30;99.90
17381;DHT22;8808;52.478;13.378;2022-09-09T20:50:24;17.30;99.90
17381;DHT22;8808;52.478;13.378;2022-09-09T20:52:51;17.30;99.90
17381;DHT22;8808;52.478;13.378;2022-09-09T20:55:18;17.30;99.90
17381;DHT22;8808;52.478;13.378;2022-09-09T20:57:45;17.20;99.90
17381;DHT22;8808;52.478;13.378;2022-09-09T21:00:12;17.30;99.90
17381;DHT22;8808;52.478;13.378;2022-09-09T21:02:40;17.30;99.90
17381;DHT22;8808;52.478;13.378;2022-09-09T21:05:07;17.20;99.90
17381;DHT22;8808;52.478;13.378;2022-09-09T21:07:37;17.20;99.90
17381;DHT22;8808;52.478;13.378;2022-09-09T21:10:05;17.20;99.90
17381;DHT22;8808;52.478;13.378;2022-09-09T21:12:32;17.20;99.90
17381;DHT22;8808;52.478;13.378;2022-09-09T21:14:59;17.20;99.90
17381;DHT22;8808;52.478;13.378;2022-09-09T21:17:26;17.20;99.90
17381;DHT22;8808;52.478;13.378;2022-09-09T21:19:53;17.10;99.90
17381;DHT22;8808;52.478;13.378;2022-09-09T21:22:20;17.00;99.90
17381;DHT22;8808;52.478;13.378;2022-09-09T21:24:48;17.00;99.90